<?xml version="1.0" encoding="UTF-8" standalone="no" ?>
<gpx xmlns="http://www.topografix.com/GPX/1/1" xmlns:xsi="http://www.w3.org/2001/XMLSchema-instance" xsi:schemaLocation="http://www.topografix.com/GPX/1/1 http://www.topografix.com/GPX/1/1/gpx.xsd" version="1.1" creator="VisuGPX - https://www.visugpx.com">
  <metadata>
    <name>Port Bail  19 km</name>
  </metadata>
  <trk>
    <name><![CDATA[14967108-Port Bail  19 km]]></name>
    <extensions>
      <line xmlns="http://www.topografix.com/GPX/gpx_style/0/2">
        <color>0000FF</color>
        <width>4</width>
      </line>
    </extensions>
    <trkseg>
      <trkpt lat="49.33435" lon="-1.72536">
        <ele>6</ele>
        <time>2022-06-18T08:54:55Z</time>
      </trkpt>
      <trkpt lat="49.33374" lon="-1.72397">
        <ele>6</ele>
        <time>2022-06-18T08:57:21Z</time>
      </trkpt>
      <trkpt lat="49.33472" lon="-1.72185">
        <ele>7</ele>
        <time>2022-06-18T09:01:07Z</time>
      </trkpt>
      <trkpt lat="49.33233" lon="-1.71928">
        <ele>7</ele>
        <time>2022-06-18T09:07:36Z</time>
      </trkpt>
      <trkpt lat="49.33155" lon="-1.71848">
        <ele>6</ele>
        <time>2022-06-18T09:09:41Z</time>
      </trkpt>
      <trkpt lat="49.33058" lon="-1.71655">
        <ele>5</ele>
        <time>2022-06-18T09:13:13Z</time>
      </trkpt>
      <trkpt lat="49.33035" lon="-1.71622">
        <ele>6</ele>
        <time>2022-06-18T09:13:55Z</time>
      </trkpt>
      <trkpt lat="49.33032" lon="-1.71604">
        <ele>6</ele>
        <time>2022-06-18T09:14:12Z</time>
      </trkpt>
      <trkpt lat="49.33024" lon="-1.716">
        <ele>6</ele>
        <time>2022-06-18T09:14:23Z</time>
      </trkpt>
      <trkpt lat="49.33012" lon="-1.7155">
        <ele>6</ele>
        <time>2022-06-18T09:15:09Z</time>
      </trkpt>
      <trkpt lat="49.33007" lon="-1.71503">
        <ele>6</ele>
        <time>2022-06-18T09:15:51Z</time>
      </trkpt>
      <trkpt lat="49.32997" lon="-1.71223">
        <ele>5</ele>
        <time>2022-06-18T09:19:54Z</time>
      </trkpt>
      <trkpt lat="49.32974" lon="-1.71087">
        <ele>6</ele>
        <time>2022-06-18T09:21:57Z</time>
      </trkpt>
      <trkpt lat="49.32952" lon="-1.70987">
        <ele>5</ele>
        <time>2022-06-18T09:23:28Z</time>
      </trkpt>
      <trkpt lat="49.32934" lon="-1.70951">
        <ele>5</ele>
        <time>2022-06-18T09:24:08Z</time>
      </trkpt>
      <trkpt lat="49.32934" lon="-1.70919">
        <ele>5</ele>
        <time>2022-06-18T09:24:36Z</time>
      </trkpt>
      <trkpt lat="49.3291" lon="-1.70834">
        <ele>6</ele>
        <time>2022-06-18T09:25:56Z</time>
      </trkpt>
      <trkpt lat="49.32899" lon="-1.70744">
        <ele>3</ele>
        <time>2022-06-18T09:27:16Z</time>
      </trkpt>
      <trkpt lat="49.32907" lon="-1.70734">
        <ele>3</ele>
        <time>2022-06-18T09:27:30Z</time>
      </trkpt>
      <trkpt lat="49.32957" lon="-1.70738">
        <ele>4</ele>
        <time>2022-06-18T09:28:36Z</time>
      </trkpt>
      <trkpt lat="49.3297" lon="-1.70695">
        <ele>3</ele>
        <time>2022-06-18T09:29:18Z</time>
      </trkpt>
      <trkpt lat="49.33003" lon="-1.70642">
        <ele>2</ele>
        <time>2022-06-18T09:30:21Z</time>
      </trkpt>
      <trkpt lat="49.33013" lon="-1.70631">
        <ele>2</ele>
        <time>2022-06-18T09:30:38Z</time>
      </trkpt>
      <trkpt lat="49.33049" lon="-1.70576">
        <ele>2</ele>
        <time>2022-06-18T09:31:46Z</time>
      </trkpt>
      <trkpt lat="49.33063" lon="-1.7055">
        <ele>3</ele>
        <time>2022-06-18T09:32:15Z</time>
      </trkpt>
      <trkpt lat="49.33118" lon="-1.70468">
        <ele>4</ele>
        <time>2022-06-18T09:33:57Z</time>
      </trkpt>
      <trkpt lat="49.33138" lon="-1.70427">
        <ele>4</ele>
        <time>2022-06-18T09:34:42Z</time>
      </trkpt>
      <trkpt lat="49.33153" lon="-1.70433">
        <ele>4</ele>
        <time>2022-06-18T09:35:03Z</time>
      </trkpt>
      <trkpt lat="49.33316" lon="-1.7019">
        <ele>5.3</ele>
        <time>2022-06-18T09:40:06Z</time>
      </trkpt>
      <trkpt lat="49.33319" lon="-1.70196">
        <ele>5.1</ele>
        <time>2022-06-18T09:40:12Z</time>
      </trkpt>
      <trkpt lat="49.33358" lon="-1.70134">
        <ele>5.4</ele>
        <time>2022-06-18T09:41:27Z</time>
      </trkpt>
      <trkpt lat="49.33454" lon="-1.69994">
        <ele>5</ele>
        <time>2022-06-18T09:44:24Z</time>
      </trkpt>
      <trkpt lat="49.33464" lon="-1.69968">
        <ele>7</ele>
        <time>2022-06-18T09:44:50Z</time>
      </trkpt>
      <trkpt lat="49.33429" lon="-1.69935">
        <ele>6</ele>
        <time>2022-06-18T09:45:45Z</time>
      </trkpt>
      <trkpt lat="49.33421" lon="-1.69939">
        <ele>5</ele>
        <time>2022-06-18T09:45:56Z</time>
      </trkpt>
      <trkpt lat="49.33343" lon="-1.69818">
        <ele>5</ele>
        <time>2022-06-18T09:48:24Z</time>
      </trkpt>
      <trkpt lat="49.33299" lon="-1.69782">
        <ele>5</ele>
        <time>2022-06-18T09:49:31Z</time>
      </trkpt>
      <trkpt lat="49.33263" lon="-1.6975">
        <ele>5</ele>
        <time>2022-06-18T09:50:26Z</time>
      </trkpt>
      <trkpt lat="49.33218" lon="-1.69714">
        <ele>4</ele>
        <time>2022-06-18T09:51:34Z</time>
      </trkpt>
      <trkpt lat="49.33112" lon="-1.69581">
        <ele>4</ele>
        <time>2022-06-18T09:54:37Z</time>
      </trkpt>
      <trkpt lat="49.3309" lon="-1.69542">
        <ele>3</ele>
        <time>2022-06-18T09:55:22Z</time>
      </trkpt>
      <trkpt lat="49.33074" lon="-1.6946">
        <ele>4</ele>
        <time>2022-06-18T09:56:36Z</time>
      </trkpt>
      <trkpt lat="49.3307" lon="-1.69369">
        <ele>4</ele>
        <time>2022-06-18T09:57:55Z</time>
      </trkpt>
      <trkpt lat="49.33032" lon="-1.69276">
        <ele>4</ele>
        <time>2022-06-18T09:59:31Z</time>
      </trkpt>
      <trkpt lat="49.33002" lon="-1.69236">
        <ele>3</ele>
        <time>2022-06-18T10:00:24Z</time>
      </trkpt>
      <trkpt lat="49.32993" lon="-1.69149">
        <ele>5</ele>
        <time>2022-06-18T10:01:41Z</time>
      </trkpt>
      <trkpt lat="49.32987" lon="-1.69031">
        <ele>5</ele>
        <time>2022-06-18T10:03:23Z</time>
      </trkpt>
      <trkpt lat="49.32991" lon="-1.68957">
        <ele>5</ele>
        <time>2022-06-18T10:04:28Z</time>
      </trkpt>
      <trkpt lat="49.3301" lon="-1.68908">
        <ele>4</ele>
        <time>2022-06-18T10:05:18Z</time>
      </trkpt>
      <trkpt lat="49.33019" lon="-1.68837">
        <ele>4</ele>
        <time>2022-06-18T10:06:21Z</time>
      </trkpt>
      <trkpt lat="49.33056" lon="-1.68752">
        <ele>4</ele>
        <time>2022-06-18T10:07:49Z</time>
      </trkpt>
      <trkpt lat="49.33056" lon="-1.68696">
        <ele>5</ele>
        <time>2022-06-18T10:08:38Z</time>
      </trkpt>
      <trkpt lat="49.32982" lon="-1.68686">
        <ele>2</ele>
        <time>2022-06-18T10:10:17Z</time>
      </trkpt>
      <trkpt lat="49.32949" lon="-1.68676">
        <ele>2</ele>
        <time>2022-06-18T10:11:02Z</time>
      </trkpt>
      <trkpt lat="49.32892" lon="-1.68632">
        <ele>3</ele>
        <time>2022-06-18T10:12:27Z</time>
      </trkpt>
      <trkpt lat="49.3287" lon="-1.68603">
        <ele>4</ele>
        <time>2022-06-18T10:13:06Z</time>
      </trkpt>
      <trkpt lat="49.32804" lon="-1.68723">
        <ele>5</ele>
        <time>2022-06-18T10:15:23Z</time>
      </trkpt>
      <trkpt lat="49.32772" lon="-1.68749">
        <ele>5</ele>
        <time>2022-06-18T10:16:11Z</time>
      </trkpt>
      <trkpt lat="49.32769" lon="-1.68775">
        <ele>5</ele>
        <time>2022-06-18T10:16:34Z</time>
      </trkpt>
      <trkpt lat="49.32764" lon="-1.68784">
        <ele>5</ele>
        <time>2022-06-18T10:16:44Z</time>
      </trkpt>
      <trkpt lat="49.32753" lon="-1.68797">
        <ele>6</ele>
        <time>2022-06-18T10:17:03Z</time>
      </trkpt>
      <trkpt lat="49.32739" lon="-1.68823">
        <ele>6</ele>
        <time>2022-06-18T10:17:32Z</time>
      </trkpt>
      <trkpt lat="49.32723" lon="-1.68866">
        <ele>6</ele>
        <time>2022-06-18T10:18:15Z</time>
      </trkpt>
      <trkpt lat="49.32728" lon="-1.68933">
        <ele>7</ele>
        <time>2022-06-18T10:19:14Z</time>
      </trkpt>
      <trkpt lat="49.3271" lon="-1.68957">
        <ele>8</ele>
        <time>2022-06-18T10:19:46Z</time>
      </trkpt>
      <trkpt lat="49.32696" lon="-1.68998">
        <ele>9</ele>
        <time>2022-06-18T10:20:26Z</time>
      </trkpt>
      <trkpt lat="49.32668" lon="-1.69027">
        <ele>10</ele>
        <time>2022-06-18T10:21:11Z</time>
      </trkpt>
      <trkpt lat="49.32669" lon="-1.69052">
        <ele>11</ele>
        <time>2022-06-18T10:21:33Z</time>
      </trkpt>
      <trkpt lat="49.32635" lon="-1.69179">
        <ele>10</ele>
        <time>2022-06-18T10:23:32Z</time>
      </trkpt>
      <trkpt lat="49.32621" lon="-1.69199">
        <ele>11</ele>
        <time>2022-06-18T10:23:58Z</time>
      </trkpt>
      <trkpt lat="49.32591" lon="-1.69221">
        <ele>12</ele>
        <time>2022-06-18T10:24:42Z</time>
      </trkpt>
      <trkpt lat="49.3257" lon="-1.69242">
        <ele>13</ele>
        <time>2022-06-18T10:25:15Z</time>
      </trkpt>
      <trkpt lat="49.3255" lon="-1.69257">
        <ele>13</ele>
        <time>2022-06-18T10:25:45Z</time>
      </trkpt>
      <trkpt lat="49.32509" lon="-1.69293">
        <ele>15</ele>
        <time>2022-06-18T10:26:48Z</time>
      </trkpt>
      <trkpt lat="49.32497" lon="-1.69314">
        <ele>15</ele>
        <time>2022-06-18T10:27:12Z</time>
      </trkpt>
      <trkpt lat="49.32492" lon="-1.69393">
        <ele>15</ele>
        <time>2022-06-18T10:28:22Z</time>
      </trkpt>
      <trkpt lat="49.32458" lon="-1.69418">
        <ele>15</ele>
        <time>2022-06-18T10:29:12Z</time>
      </trkpt>
      <trkpt lat="49.32415" lon="-1.6947">
        <ele>17</ele>
        <time>2022-06-18T10:30:25Z</time>
      </trkpt>
      <trkpt lat="49.32388" lon="-1.69521">
        <ele>15</ele>
        <time>2022-06-18T10:31:22Z</time>
      </trkpt>
      <trkpt lat="49.32374" lon="-1.69535">
        <ele>14</ele>
        <time>2022-06-18T10:31:44Z</time>
      </trkpt>
      <trkpt lat="49.32339" lon="-1.69541">
        <ele>13</ele>
        <time>2022-06-18T10:32:31Z</time>
      </trkpt>
      <trkpt lat="49.32317" lon="-1.69537">
        <ele>12</ele>
        <time>2022-06-18T10:33:01Z</time>
      </trkpt>
      <trkpt lat="49.32284" lon="-1.6959">
        <ele>10</ele>
        <time>2022-06-18T10:34:05Z</time>
      </trkpt>
      <trkpt lat="49.32218" lon="-1.69676">
        <ele>9</ele>
        <time>2022-06-18T10:36:00Z</time>
      </trkpt>
      <trkpt lat="49.32211" lon="-1.69716">
        <ele>9</ele>
        <time>2022-06-18T10:36:36Z</time>
      </trkpt>
      <trkpt lat="49.32222" lon="-1.69784">
        <ele>10</ele>
        <time>2022-06-18T10:37:37Z</time>
      </trkpt>
      <trkpt lat="49.32243" lon="-1.69852">
        <ele>10</ele>
        <time>2022-06-18T10:38:43Z</time>
      </trkpt>
      <trkpt lat="49.32254" lon="-1.69895">
        <ele>9</ele>
        <time>2022-06-18T10:39:23Z</time>
      </trkpt>
      <trkpt lat="49.32249" lon="-1.69967">
        <ele>8</ele>
        <time>2022-06-18T10:40:26Z</time>
      </trkpt>
      <trkpt lat="49.32253" lon="-1.69996">
        <ele>8</ele>
        <time>2022-06-18T10:40:52Z</time>
      </trkpt>
      <trkpt lat="49.3224" lon="-1.70088">
        <ele>10</ele>
        <time>2022-06-18T10:42:13Z</time>
      </trkpt>
      <trkpt lat="49.32246" lon="-1.70121">
        <ele>10</ele>
        <time>2022-06-18T10:42:43Z</time>
      </trkpt>
      <trkpt lat="49.32248" lon="-1.70213">
        <ele>8</ele>
        <time>2022-06-18T10:44:03Z</time>
      </trkpt>
      <trkpt lat="49.32266" lon="-1.70267">
        <ele>7</ele>
        <time>2022-06-18T10:44:56Z</time>
      </trkpt>
      <trkpt lat="49.32267" lon="-1.70303">
        <ele>8</ele>
        <time>2022-06-18T10:45:27Z</time>
      </trkpt>
      <trkpt lat="49.32284" lon="-1.70347">
        <ele>8</ele>
        <time>2022-06-18T10:46:12Z</time>
      </trkpt>
      <trkpt lat="49.32285" lon="-1.70418">
        <ele>8</ele>
        <time>2022-06-18T10:47:14Z</time>
      </trkpt>
      <trkpt lat="49.32273" lon="-1.7048">
        <ele>5</ele>
        <time>2022-06-18T10:48:10Z</time>
      </trkpt>
      <trkpt lat="49.32231" lon="-1.7048">
        <ele>6</ele>
        <time>2022-06-18T10:49:06Z</time>
      </trkpt>
      <trkpt lat="49.32174" lon="-1.7047">
        <ele>6</ele>
        <time>2022-06-18T10:50:23Z</time>
      </trkpt>
      <trkpt lat="49.32028" lon="-1.70384">
        <ele>8</ele>
        <time>2022-06-18T10:53:51Z</time>
      </trkpt>
      <trkpt lat="49.31956" lon="-1.70346">
        <ele>8</ele>
        <time>2022-06-18T10:55:33Z</time>
      </trkpt>
      <trkpt lat="49.31881" lon="-1.7038">
        <ele>9</ele>
        <time>2022-06-18T10:57:17Z</time>
      </trkpt>
      <trkpt lat="49.31859" lon="-1.70474">
        <ele>11</ele>
        <time>2022-06-18T10:58:44Z</time>
      </trkpt>
      <trkpt lat="49.31837" lon="-1.70644">
        <ele>7</ele>
        <time>2022-06-18T11:01:15Z</time>
      </trkpt>
      <trkpt lat="49.31714" lon="-1.70502">
        <ele>10</ele>
        <time>2022-06-18T11:04:40Z</time>
      </trkpt>
      <trkpt lat="49.31743" lon="-1.70428">
        <ele>11</ele>
        <time>2022-06-18T11:05:55Z</time>
      </trkpt>
      <trkpt lat="49.31644" lon="-1.70308">
        <ele>9</ele>
        <time>2022-06-18T11:08:44Z</time>
      </trkpt>
      <trkpt lat="49.31725" lon="-1.70342">
        <ele>9</ele>
        <time>2022-06-18T11:10:36Z</time>
      </trkpt>
      <trkpt lat="49.31754" lon="-1.7008">
        <ele>8</ele>
        <time>2022-06-18T11:14:27Z</time>
      </trkpt>
      <trkpt lat="49.31766" lon="-1.69983">
        <ele>9</ele>
        <time>2022-06-18T11:15:53Z</time>
      </trkpt>
      <trkpt lat="49.31805" lon="-1.69958">
        <ele>9</ele>
        <time>2022-06-18T11:16:49Z</time>
      </trkpt>
      <trkpt lat="49.3184" lon="-1.69813">
        <ele>10</ele>
        <time>2022-06-18T11:19:04Z</time>
      </trkpt>
      <trkpt lat="49.31885" lon="-1.69713">
        <ele>10</ele>
        <time>2022-06-18T11:20:49Z</time>
      </trkpt>
      <trkpt lat="49.31893" lon="-1.69703">
        <ele>10</ele>
        <time>2022-06-18T11:21:03Z</time>
      </trkpt>
      <trkpt lat="49.31898" lon="-1.69707">
        <ele>10</ele>
        <time>2022-06-18T11:21:11Z</time>
      </trkpt>
      <trkpt lat="49.31915" lon="-1.69722">
        <ele>11</ele>
        <time>2022-06-18T11:21:37Z</time>
      </trkpt>
      <trkpt lat="49.31901" lon="-1.6969">
        <ele>10</ele>
        <time>2022-06-18T11:22:10Z</time>
      </trkpt>
      <trkpt lat="49.31965" lon="-1.69596">
        <ele>10</ele>
        <time>2022-06-18T11:24:09Z</time>
      </trkpt>
      <trkpt lat="49.31997" lon="-1.69341">
        <ele>12</ele>
        <time>2022-06-18T11:27:55Z</time>
      </trkpt>
      <trkpt lat="49.32082" lon="-1.6918">
        <ele>12</ele>
        <time>2022-06-18T11:30:55Z</time>
      </trkpt>
      <trkpt lat="49.32095" lon="-1.69062">
        <ele>11</ele>
        <time>2022-06-18T11:32:39Z</time>
      </trkpt>
      <trkpt lat="49.3203" lon="-1.69011">
        <ele>12</ele>
        <time>2022-06-18T11:34:16Z</time>
      </trkpt>
      <trkpt lat="49.32013" lon="-1.69015">
        <ele>12</ele>
        <time>2022-06-18T11:34:39Z</time>
      </trkpt>
      <trkpt lat="49.31861" lon="-1.69068">
        <ele>10</ele>
        <time>2022-06-18T11:38:07Z</time>
      </trkpt>
      <trkpt lat="49.31791" lon="-1.69132">
        <ele>11</ele>
        <time>2022-06-18T11:39:56Z</time>
      </trkpt>
      <trkpt lat="49.31735" lon="-1.69354">
        <ele>11</ele>
        <time>2022-06-18T11:43:23Z</time>
      </trkpt>
      <trkpt lat="49.31747" lon="-1.69372">
        <ele>11</ele>
        <time>2022-06-18T11:43:46Z</time>
      </trkpt>
      <trkpt lat="49.31572" lon="-1.69258">
        <ele>11</ele>
        <time>2022-06-18T11:47:59Z</time>
      </trkpt>
      <trkpt lat="49.31564" lon="-1.69317">
        <ele>11</ele>
        <time>2022-06-18T11:48:52Z</time>
      </trkpt>
      <trkpt lat="49.31814" lon="-1.68437">
        <ele>14</ele>
        <time>2022-06-18T12:02:47Z</time>
      </trkpt>
      <trkpt lat="49.31947" lon="-1.6856">
        <ele>14</ele>
        <time>2022-06-18T12:06:14Z</time>
      </trkpt>
      <trkpt lat="49.32081" lon="-1.68204">
        <ele>16</ele>
        <time>2022-06-18T12:12:12Z</time>
      </trkpt>
      <trkpt lat="49.3211" lon="-1.68296">
        <ele>15</ele>
        <time>2022-06-18T12:13:40Z</time>
      </trkpt>
      <trkpt lat="49.32149" lon="-1.68338">
        <ele>13</ele>
        <time>2022-06-18T12:14:44Z</time>
      </trkpt>
      <trkpt lat="49.3221" lon="-1.68336">
        <ele>13</ele>
        <time>2022-06-18T12:16:05Z</time>
      </trkpt>
      <trkpt lat="49.3226" lon="-1.6842">
        <ele>12</ele>
        <time>2022-06-18T12:17:44Z</time>
      </trkpt>
      <trkpt lat="49.32324" lon="-1.68373">
        <ele>12</ele>
        <time>2022-06-18T12:19:19Z</time>
      </trkpt>
      <trkpt lat="49.32394" lon="-1.68391">
        <ele>11</ele>
        <time>2022-06-18T12:20:54Z</time>
      </trkpt>
      <trkpt lat="49.32425" lon="-1.68384">
        <ele>10</ele>
        <time>2022-06-18T12:21:36Z</time>
      </trkpt>
      <trkpt lat="49.32442" lon="-1.68388">
        <ele>10</ele>
        <time>2022-06-18T12:21:59Z</time>
      </trkpt>
      <trkpt lat="49.32468" lon="-1.68357">
        <ele>9</ele>
        <time>2022-06-18T12:22:42Z</time>
      </trkpt>
      <trkpt lat="49.32503" lon="-1.68382">
        <ele>8</ele>
        <time>2022-06-18T12:23:34Z</time>
      </trkpt>
      <trkpt lat="49.32547" lon="-1.68438">
        <ele>8</ele>
        <time>2022-06-18T12:24:50Z</time>
      </trkpt>
      <trkpt lat="49.32582" lon="-1.68489">
        <ele>8</ele>
        <time>2022-06-18T12:25:55Z</time>
      </trkpt>
      <trkpt lat="49.32624" lon="-1.68542">
        <ele>7</ele>
        <time>2022-06-18T12:27:07Z</time>
      </trkpt>
      <trkpt lat="49.32664" lon="-1.68599">
        <ele>7</ele>
        <time>2022-06-18T12:28:20Z</time>
      </trkpt>
      <trkpt lat="49.32717" lon="-1.68662">
        <ele>7</ele>
        <time>2022-06-18T12:29:50Z</time>
      </trkpt>
      <trkpt lat="49.3276" lon="-1.68721">
        <ele>6</ele>
        <time>2022-06-18T12:31:07Z</time>
      </trkpt>
      <trkpt lat="49.32765" lon="-1.68709">
        <ele>6</ele>
        <time>2022-06-18T12:31:19Z</time>
      </trkpt>
      <trkpt lat="49.3279" lon="-1.68721">
        <ele>5</ele>
        <time>2022-06-18T12:31:54Z</time>
      </trkpt>
      <trkpt lat="49.32797" lon="-1.68721">
        <ele>5</ele>
        <time>2022-06-18T12:32:03Z</time>
      </trkpt>
      <trkpt lat="49.32808" lon="-1.68708">
        <ele>5</ele>
        <time>2022-06-18T12:32:22Z</time>
      </trkpt>
      <trkpt lat="49.32866" lon="-1.68599">
        <ele>4</ele>
        <time>2022-06-18T12:34:24Z</time>
      </trkpt>
      <trkpt lat="49.3285" lon="-1.68554">
        <ele>5</ele>
        <time>2022-06-18T12:35:09Z</time>
      </trkpt>
      <trkpt lat="49.32742" lon="-1.68319">
        <ele>7</ele>
        <time>2022-06-18T12:39:19Z</time>
      </trkpt>
      <trkpt lat="49.32717" lon="-1.67853">
        <ele>9</ele>
        <time>2022-06-18T12:46:05Z</time>
      </trkpt>
      <trkpt lat="49.33233" lon="-1.6793">
        <ele>13</ele>
        <time>2022-06-18T12:57:37Z</time>
      </trkpt>
      <trkpt lat="49.33135" lon="-1.6815">
        <ele>9</ele>
        <time>2022-06-18T13:01:29Z</time>
      </trkpt>
      <trkpt lat="49.33091" lon="-1.68357">
        <ele>5</ele>
        <time>2022-06-18T13:04:38Z</time>
      </trkpt>
      <trkpt lat="49.33073" lon="-1.68571">
        <ele>7</ele>
        <time>2022-06-18T13:07:46Z</time>
      </trkpt>
      <trkpt lat="49.33286" lon="-1.68707">
        <ele>15</ele>
        <time>2022-06-18T13:12:54Z</time>
      </trkpt>
      <trkpt lat="49.33265" lon="-1.68864">
        <ele>14</ele>
        <time>2022-06-18T13:15:13Z</time>
      </trkpt>
      <trkpt lat="49.3331" lon="-1.68947">
        <ele>14</ele>
        <time>2022-06-18T13:16:47Z</time>
      </trkpt>
      <trkpt lat="49.3336" lon="-1.69067">
        <ele>13</ele>
        <time>2022-06-18T13:18:51Z</time>
      </trkpt>
      <trkpt lat="49.33332" lon="-1.69208">
        <ele>12</ele>
        <time>2022-06-18T13:20:59Z</time>
      </trkpt>
      <trkpt lat="49.3339" lon="-1.69238">
        <ele>13</ele>
        <time>2022-06-18T13:22:21Z</time>
      </trkpt>
      <trkpt lat="49.33448" lon="-1.69293">
        <ele>14</ele>
        <time>2022-06-18T13:23:52Z</time>
      </trkpt>
      <trkpt lat="49.33349" lon="-1.69687">
        <ele>9</ele>
        <time>2022-06-18T13:29:59Z</time>
      </trkpt>
      <trkpt lat="49.33401" lon="-1.69723">
        <ele>10</ele>
        <time>2022-06-18T13:31:15Z</time>
      </trkpt>
      <trkpt lat="49.33435" lon="-1.6976">
        <ele>10</ele>
        <time>2022-06-18T13:32:11Z</time>
      </trkpt>
      <trkpt lat="49.33461" lon="-1.69806">
        <ele>11</ele>
        <time>2022-06-18T13:33:04Z</time>
      </trkpt>
      <trkpt lat="49.33497" lon="-1.69862">
        <ele>11</ele>
        <time>2022-06-18T13:34:12Z</time>
      </trkpt>
      <trkpt lat="49.33502" lon="-1.69895">
        <ele>11</ele>
        <time>2022-06-18T13:34:42Z</time>
      </trkpt>
      <trkpt lat="49.33493" lon="-1.69949">
        <ele>9</ele>
        <time>2022-06-18T13:35:30Z</time>
      </trkpt>
      <trkpt lat="49.33522" lon="-1.69985">
        <ele>9</ele>
        <time>2022-06-18T13:36:20Z</time>
      </trkpt>
      <trkpt lat="49.33559" lon="-1.70013">
        <ele>8</ele>
        <time>2022-06-18T13:37:15Z</time>
      </trkpt>
      <trkpt lat="49.33656" lon="-1.70063">
        <ele>6</ele>
        <time>2022-06-18T13:39:32Z</time>
      </trkpt>
      <trkpt lat="49.33677" lon="-1.70066">
        <ele>6</ele>
        <time>2022-06-18T13:40:00Z</time>
      </trkpt>
      <trkpt lat="49.33839" lon="-1.69998">
        <ele>7</ele>
        <time>2022-06-18T13:43:44Z</time>
      </trkpt>
      <trkpt lat="49.33906" lon="-1.70022">
        <ele>8</ele>
        <time>2022-06-18T13:45:16Z</time>
      </trkpt>
      <trkpt lat="49.33906" lon="-1.70021">
        <ele>8</ele>
        <time>2022-06-18T13:45:16Z</time>
      </trkpt>
      <trkpt lat="49.33939" lon="-1.70037">
        <ele>9</ele>
        <time>2022-06-18T13:46:03Z</time>
      </trkpt>
      <trkpt lat="49.34006" lon="-1.70077">
        <ele>8</ele>
        <time>2022-06-18T13:47:39Z</time>
      </trkpt>
      <trkpt lat="49.34052" lon="-1.70111">
        <ele>8</ele>
        <time>2022-06-18T13:48:47Z</time>
      </trkpt>
      <trkpt lat="49.34083" lon="-1.70138">
        <ele>8</ele>
        <time>2022-06-18T13:49:34Z</time>
      </trkpt>
      <trkpt lat="49.34123" lon="-1.70182">
        <ele>8</ele>
        <time>2022-06-18T13:50:40Z</time>
      </trkpt>
      <trkpt lat="49.34227" lon="-1.70344">
        <ele>7</ele>
        <time>2022-06-18T13:53:58Z</time>
      </trkpt>
      <trkpt lat="49.34283" lon="-1.70437">
        <ele>6</ele>
        <time>2022-06-18T13:55:48Z</time>
      </trkpt>
      <trkpt lat="49.34293" lon="-1.70476">
        <ele>6</ele>
        <time>2022-06-18T13:56:24Z</time>
      </trkpt>
      <trkpt lat="49.34309" lon="-1.70524">
        <ele>6</ele>
        <time>2022-06-18T13:57:11Z</time>
      </trkpt>
      <trkpt lat="49.34332" lon="-1.70602">
        <ele>6</ele>
        <time>2022-06-18T13:58:26Z</time>
      </trkpt>
      <trkpt lat="49.34353" lon="-1.70688">
        <ele>6</ele>
        <time>2022-06-18T13:59:45Z</time>
      </trkpt>
      <trkpt lat="49.3438" lon="-1.70753">
        <ele>6</ele>
        <time>2022-06-18T14:00:52Z</time>
      </trkpt>
      <trkpt lat="49.34397" lon="-1.70785">
        <ele>7</ele>
        <time>2022-06-18T14:01:28Z</time>
      </trkpt>
      <trkpt lat="49.34418" lon="-1.70824">
        <ele>8</ele>
        <time>2022-06-18T14:02:12Z</time>
      </trkpt>
      <trkpt lat="49.34459" lon="-1.70892">
        <ele>9</ele>
        <time>2022-06-18T14:03:33Z</time>
      </trkpt>
      <trkpt lat="49.34513" lon="-1.7098">
        <ele>10</ele>
        <time>2022-06-18T14:05:18Z</time>
      </trkpt>
      <trkpt lat="49.34562" lon="-1.71052">
        <ele>10</ele>
        <time>2022-06-18T14:06:49Z</time>
      </trkpt>
      <trkpt lat="49.34623" lon="-1.71155">
        <ele>10</ele>
        <time>2022-06-18T14:08:50Z</time>
      </trkpt>
      <trkpt lat="49.34643" lon="-1.71182">
        <ele>10</ele>
        <time>2022-06-18T14:09:25Z</time>
      </trkpt>
      <trkpt lat="49.34675" lon="-1.71231">
        <ele>10</ele>
        <time>2022-06-18T14:10:25Z</time>
      </trkpt>
      <trkpt lat="49.34711" lon="-1.71276">
        <ele>10</ele>
        <time>2022-06-18T14:11:27Z</time>
      </trkpt>
      <trkpt lat="49.34719" lon="-1.71289">
        <ele>10</ele>
        <time>2022-06-18T14:11:43Z</time>
      </trkpt>
      <trkpt lat="49.34708" lon="-1.71309">
        <ele>9</ele>
        <time>2022-06-18T14:12:06Z</time>
      </trkpt>
      <trkpt lat="49.34625" lon="-1.71403">
        <ele>5</ele>
        <time>2022-06-18T14:14:23Z</time>
      </trkpt>
      <trkpt lat="49.3462" lon="-1.71411">
        <ele>5</ele>
        <time>2022-06-18T14:14:33Z</time>
      </trkpt>
      <trkpt lat="49.34611" lon="-1.71447">
        <ele>4</ele>
        <time>2022-06-18T14:15:06Z</time>
      </trkpt>
      <trkpt lat="49.34625" lon="-1.71576">
        <ele>5</ele>
        <time>2022-06-18T14:17:00Z</time>
      </trkpt>
      <trkpt lat="49.34658" lon="-1.7156">
        <ele>6</ele>
        <time>2022-06-18T14:17:46Z</time>
      </trkpt>
      <trkpt lat="49.3468" lon="-1.71555">
        <ele>6</ele>
        <time>2022-06-18T14:18:16Z</time>
      </trkpt>
      <trkpt lat="49.3474" lon="-1.71519">
        <ele>5</ele>
        <time>2022-06-18T14:19:42Z</time>
      </trkpt>
      <trkpt lat="49.34744" lon="-1.71523">
        <ele>5</ele>
        <time>2022-06-18T14:19:48Z</time>
      </trkpt>
      <trkpt lat="49.34756" lon="-1.71547">
        <ele>6</ele>
        <time>2022-06-18T14:20:15Z</time>
      </trkpt>
      <trkpt lat="49.34722" lon="-1.71599">
        <ele>6</ele>
        <time>2022-06-18T14:21:19Z</time>
      </trkpt>
      <trkpt lat="49.34688" lon="-1.71669">
        <ele>6</ele>
        <time>2022-06-18T14:22:35Z</time>
      </trkpt>
      <trkpt lat="49.34675" lon="-1.71716">
        <ele>5</ele>
        <time>2022-06-18T14:23:19Z</time>
      </trkpt>
      <trkpt lat="49.34675" lon="-1.71753">
        <ele>4</ele>
        <time>2022-06-18T14:23:51Z</time>
      </trkpt>
      <trkpt lat="49.34672" lon="-1.71797">
        <ele>5</ele>
        <time>2022-06-18T14:24:30Z</time>
      </trkpt>
      <trkpt lat="49.34663" lon="-1.71836">
        <ele>5</ele>
        <time>2022-06-18T14:25:06Z</time>
      </trkpt>
      <trkpt lat="49.34616" lon="-1.71972">
        <ele>5</ele>
        <time>2022-06-18T14:27:19Z</time>
      </trkpt>
      <trkpt lat="49.34516" lon="-1.72198">
        <ele>7</ele>
        <time>2022-06-18T14:31:17Z</time>
      </trkpt>
      <trkpt lat="49.34497" lon="-1.72212">
        <ele>7</ele>
        <time>2022-06-18T14:31:45Z</time>
      </trkpt>
      <trkpt lat="49.34257" lon="-1.71956">
        <ele>6</ele>
        <time>2022-06-18T14:38:15Z</time>
      </trkpt>
      <trkpt lat="49.3418" lon="-1.7214">
        <ele>7</ele>
        <time>2022-06-18T14:41:25Z</time>
      </trkpt>
      <trkpt lat="49.34028" lon="-1.7198">
        <ele>8</ele>
        <time>2022-06-18T14:45:31Z</time>
      </trkpt>
      <trkpt lat="49.3402" lon="-1.71978">
        <ele>8</ele>
        <time>2022-06-18T14:45:42Z</time>
      </trkpt>
      <trkpt lat="49.34012" lon="-1.71981">
        <ele>8</ele>
        <time>2022-06-18T14:45:53Z</time>
      </trkpt>
      <trkpt lat="49.33829" lon="-1.72323">
        <ele>6</ele>
        <time>2022-06-18T14:52:18Z</time>
      </trkpt>
      <trkpt lat="49.33776" lon="-1.72425">
        <ele>7</ele>
        <time>2022-06-18T14:54:11Z</time>
      </trkpt>
      <trkpt lat="49.33736" lon="-1.72497">
        <ele>7</ele>
        <time>2022-06-18T14:55:34Z</time>
      </trkpt>
      <trkpt lat="49.33475" lon="-1.72191">
        <ele>7</ele>
        <time>2022-06-18T15:02:52Z</time>
      </trkpt>
      <trkpt lat="49.33378" lon="-1.72398">
        <ele>6</ele>
        <time>2022-06-18T15:06:34Z</time>
      </trkpt>
      <trkpt lat="49.33443" lon="-1.72542">
        <ele>6</ele>
        <time>2022-06-18T15:09:06Z</time>
      </trkpt>
    </trkseg>
  </trk>
</gpx>